Time;durP1;ratioP1;P1;durP2;ratioP2;P2;SDS_P1;SDS_P2;PMS_P1;PMS_P2;Temp;Humidity;BMP_temperature;BMP_pressure;BME280_temperature;BME280_humidity;BME280_pressure;Samples;Min_cycle;Max_cycle;Signal;HPM_P1;HPM_P2
2021/03/25 00:00:47;;;;;;;111.28;86.58;;;;;;;6.12;66.73;101002.55;122141;1152;22555;-74
2021/03/25 00:03:19;;;;;;;110.08;86.90;;;;;;;6.11;66.51;101008.76;122280;1152;22651;-75
2021/03/25 00:05:52;;;;;;;116.38;91.93;;;;;;;6.08;66.48;100997.68;122070;1155;22557;-75
2021/03/25 00:08:39;;;;;;;125.58;95.03;;;;;;;6.04;66.70;100996.27;121631;1154;22636;-75
2021/03/25 00:11:08;;;;;;;121.03;87.27;;;;;;;6.03;66.60;100998.06;121629;1155;25317;-73
2021/03/25 00:13:40;;;;;;;109.95;85.30;;;;;;;5.98;66.71;100994.95;121647;1155;22562;-74
2021/03/25 00:16:12;;;;;;;108.45;83.23;;;;;;;5.94;66.75;100996.16;121612;1155;22569;-74
2021/03/25 00:18:49;;;;;;;114.27;87.67;;;;;;;5.94;66.88;100990.92;121625;1155;25474;-74
2021/03/25 00:21:22;;;;;;;115.30;83.53;;;;;;;5.94;66.98;100996.16;121667;1157;22561;-74
2021/03/25 00:23:55;;;;;;;108.73;84.33;;;;;;;5.96;67.17;100988.16;122030;1155;23409;-74
2021/03/25 00:26:29;;;;;;;104.18;81.47;;;;;;;5.98;67.10;100981.02;121707;1155;22582;-74
2021/03/25 00:28:58;;;;;;;95.38;74.98;;;;;;;6.00;67.11;100982.56;121679;1155;22574;-75
2021/03/25 00:31:27;;;;;;;90.50;73.95;;;;;;;6.00;67.21;100982.56;122172;1153;22543;-75
2021/03/25 00:33:55;;;;;;;90.63;72.33;;;;;;;5.99;66.99;100982.67;122085;1152;23061;-75
2021/03/25 00:36:29;;;;;;;97.15;76.60;;;;;;;5.95;67.33;100976.84;122198;1152;23414;-75
2021/03/25 00:38:58;;;;;;;98.23;75.78;;;;;;;5.95;67.23;100981.26;122104;1152;24774;-75
2021/03/25 00:41:33;;;;;;;88.88;72.18;;;;;;;5.97;67.44;100981.98;122122;1152;25163;-75
2021/03/25 00:44:10;;;;;;;91.50;74.55;;;;;;;5.98;67.52;100970.52;122081;1152;22535;-75
2021/03/25 00:46:48;;;;;;;;;;;;;;;5.96;67.32;100978.50;122178;1156;23421;-75
2021/03/25 00:49:17;;;;;;;92.65;75.03;;;;;;;5.95;67.70;100976.02;121610;1155;21434;-75
2021/03/25 00:51:54;;;;;;;92.68;74.35;;;;;;;5.98;67.70;100973.15;121690;1157;22567;-75
2021/03/25 00:54:22;;;;;;;104.03;81.38;;;;;;;5.99;67.42;100964.31;121679;1155;24783;-73
2021/03/25 00:56:59;;;;;;;109.28;86.28;;;;;;;5.96;67.37;100967.18;121387;1159;22572;-74
2021/03/25 00:59:28;;;;;;;97.00;82.93;;;;;;;5.92;67.20;100965.73;121142;1159;22565;-73
2021/03/25 01:01:59;;;;;;;90.55;75.93;;;;;;;5.85;67.32;100968.02;121426;1158;24809;-73
2021/03/25 01:04:47;;;;;;;92.63;75.55;;;;;;;5.75;67.41;100965.28;121239;1158;24725;-73
2021/03/25 01:07:33;;;;;;;98.80;80.75;;;;;;;5.76;67.90;100963.48;121408;1155;22671;-73
2021/03/25 01:10:29;;;;;;;100.05;83.93;;;;;;;5.77;67.86;100967.80;121678;1155;22553;-73
2021/03/25 01:13:03;;;;;;;106.23;85.33;;;;;;;5.74;67.95;100963.63;121976;1155;22572;-74
2021/03/25 01:15:31;;;;;;;101.78;83.15;;;;;;;5.75;68.12;100964.45;122021;1152;22536;-74
2021/03/25 01:18:10;;;;;;;104.73;85.00;;;;;;;5.78;68.00;100958.97;122229;1151;23320;-74
2021/03/25 01:20:47;;;;;;;103.33;83.23;;;;;;;5.79;68.09;100960.63;122267;1152;22755;-74
2021/03/25 01:23:15;;;;;;;101.43;81.88;;;;;;;5.79;68.21;100955.39;121641;1155;22653;-73
2021/03/25 01:25:48;;;;;;;97.60;80.03;;;;;;;5.79;68.16;100960.63;121567;1157;24719;-74
2021/03/25 01:28:21;;;;;;;104.35;84.35;;;;;;;5.78;68.40;100961.59;121174;1158;22575;-74
2021/03/25 01:30:50;;;;;;;97.90;80.28;;;;;;;5.77;68.30;100959.94;121221;1159;23651;-73
2021/03/25 01:33:22;;;;;;;96.63;82.50;;;;;;;5.77;68.47;100955.52;121230;1158;22580;-74
2021/03/25 01:35:53;;;;;;;99.50;81.23;;;;;;;5.82;68.43;100955.14;121234;1161;22591;-74
2021/03/25 01:38:24;;;;;;;100.13;80.70;;;;;;;5.86;68.41;100953.94;121395;1156;22570;-74
2021/03/25 01:40:58;;;;;;;105.45;92.05;;;;;;;5.88;68.26;100949.41;121551;1157;22565;-74
2021/03/25 01:43:32;;;;;;;101.58;90.43;;;;;;;5.85;68.19;100957.52;121752;1155;22866;-74
2021/03/25 01:46:27;;;;;;;106.30;88.18;;;;;;;5.84;68.20;100954.07;122058;1155;24728;-74
2021/03/25 01:49:23;;;;;;;103.45;91.60;;;;;;;5.80;68.29;100955.28;122000;1155;22594;-74
2021/03/25 01:52:19;;;;;;;104.85;91.23;;;;;;;5.82;68.51;100952.52;121204;1158;22590;-74
2021/03/25 01:55:50;;;;;;;113.88;95.95;;;;;;;5.84;68.58;100945.38;121657;1155;22556;-74
2021/03/25 01:58:55;;;;;;;108.47;94.67;;;;;;;5.80;68.65;100942.17;121578;1159;22557;-74
2021/03/25 02:01:42;;;;;;;103.73;91.80;;;;;;;5.81;68.49;100935.96;121502;1157;22898;-74
2021/03/25 02:04:37;;;;;;;104.23;86.28;;;;;;;5.81;68.50;100935.13;121534;1158;24406;-74
2021/03/25 02:07:39;;;;;;;108.63;90.43;;;;;;;5.82;68.53;100934.17;121248;1158;25876;-74
2021/03/25 02:10:30;;;;;;;108.85;92.20;;;;;;;5.81;68.66;100938.58;121313;1158;22584;-73
2021/03/25 02:13:59;;;;;;;105.50;89.18;;;;;;;5.79;68.58;100934.41;121207;1159;22576;-74
2021/03/25 02:16:42;;;;;;;108.33;91.38;;;;;;;5.78;68.54;100932.75;121450;1158;22632;-73
2021/03/25 02:20:12;;;;;;;113.60;91.50;;;;;;;5.82;68.82;100932.38;121085;1161;22586;-73
2021/03/25 02:23:10;;;;;;;104.70;91.90;;;;;;;5.86;68.82;100930.34;120866;1164;22898;-73
2021/03/25 02:25:57;;;;;;;108.70;93.20;;;;;;;5.85;68.66;100928.68;120859;1164;22578;-75
2021/03/25 02:29:03;;;;;;;108.10;92.10;;;;;;;5.77;68.22;100924.06;120739;1164;22633;-74
2021/03/25 02:31:45;;;;;;;108.25;90.05;;;;;;;5.68;68.71;100923.96;120592;1165;22612;-73
2021/03/25 02:34:38;;;;;;;102.83;89.75;;;;;;;5.66;69.04;100924.92;120793;1163;24094;-74
2021/03/25 02:37:19;;;;;;;101.30;86.58;;;;;;;5.69;68.77;100917.75;120949;1164;22678;-73
2021/03/25 02:40:06;;;;;;;116.20;93.10;;;;;;;5.68;68.67;100918.72;121019;1163;23542;-74
2021/03/25 02:42:55;;;;;;;96.90;80.75;;;;;;;5.60;68.32;100917.54;120882;1166;22611;-76
2021/03/25 02:45:29;;;;;;;106.30;82.60;;;;;;;5.58;68.98;100916.81;120824;1164;22606;-76
2021/03/25 02:48:10;;;;;;;109.20;86.10;;;;;;;5.62;68.96;100912.16;120767;1165;22615;-74
2021/03/25 02:50:57;;;;;;;100.28;81.70;;;;;;;5.62;68.98;100906.92;120956;1162;22670;-74
2021/03/25 02:53:46;;;;;;;100.60;80.85;;;;;;;5.61;68.98;100903.47;121148;1159;22591;-76
2021/03/25 02:57:11;;;;;;;98.97;84.27;;;;;;;5.60;69.02;100914.09;121200;1158;24445;-74
2021/03/25 03:00:20;;;;;;;94.25;80.08;;;;;;;5.52;69.08;100909.44;121403;1157;22555;-76
2021/03/25 03:03:16;;;;;;;97.50;81.18;;;;;;;5.52;69.35;100906.81;121649;1155;23313;-73
2021/03/25 03:06:07;;;;;;;99.73;83.33;;;;;;;5.51;69.40;100907.78;121985;1155;24025;-76
2021/03/25 03:08:46;;;;;;;99.05;82.60;;;;;;;5.59;69.38;100900.13;121553;1155;22563;-74
2021/03/25 03:11:27;;;;;;;99.63;81.35;;;;;;;5.64;69.42;100905.02;121673;1155;22556;-74
2021/03/25 03:14:07;;;;;;;90.53;76.90;;;;;;;5.66;69.54;100895.23;121229;1158;22965;-74
2021/03/25 03:16:46;;;;;;;87.20;74.15;;;;;;;5.70;69.26;100893.20;121404;1158;24489;-74
2021/03/25 03:19:29;;;;;;;90.95;74.88;;;;;;;5.64;68.91;100897.16;121441;1158;22636;-74
2021/03/25 03:22:04;;;;;;;85.83;71.90;;;;;;;5.61;69.09;100900.02;121161;1159;22558;-74
2021/03/25 03:24:54;;;;;;;89.43;74.65;;;;;;;5.61;69.28;100890.37;121052;1159;22615;-75
2021/03/25 03:27:41;;;;;;;95.18;75.83;;;;;;;5.59;69.23;100897.50;121115;1159;22576;-75
2021/03/25 03:30:57;;;;;;;87.03;72.80;;;;;;;5.57;69.12;100890.74;120970;1161;22585;-74
2021/03/25 03:33:46;;;;;;;97.00;76.47;;;;;;;5.50;69.26;100900.88;121216;1161;22710;-74
2021/03/25 03:36:21;;;;;;;91.05;75.85;;;;;;;5.57;69.54;100894.20;121343;1159;22586;-77
2021/03/25 03:39:08;;;;;;;93.68;77.50;;;;;;;5.63;69.45;100888.47;121411;1158;24997;-77
2021/03/25 03:41:48;;;;;;;94.08;78.70;;;;;;;5.66;69.30;100895.23;121245;1159;22672;-77
2021/03/25 03:44:26;;;;;;;98.35;82.08;;;;;;;5.62;69.17;100894.64;121530;1158;22567;-75
2021/03/25 03:46:58;;;;;;;94.15;78.38;;;;;;;5.62;69.23;100897.27;121433;1156;24723;-75
2021/03/25 03:49:56;;;;;;;93.93;76.88;;;;;;;5.60;69.37;100899.20;121685;1158;22545;-75
2021/03/25 03:52:34;;;;;;;86.03;72.47;;;;;;;5.62;69.51;100899.89;121666;1155;22554;-75
2021/03/25 03:55:10;;;;;;;82.13;72.20;;;;;;;5.68;69.59;100902.98;121661;1155;22618;-75
2021/03/25 03:57:54;;;;;;;91.20;72.08;;;;;;;5.74;69.46;100899.88;121581;1155;22552;-75
2021/03/25 04:00:45;;;;;;;90.65;74.63;;;;;;;5.79;69.41;100903.78;122019;1155;22809;-75
2021/03/25 04:03:30;;;;;;;91.30;75.93;;;;;;;5.80;69.18;100900.22;121568;1155;22551;-75
2021/03/25 04:06:31;;;;;;;97.20;75.93;;;;;;;5.80;69.10;100899.39;121433;1159;22615;-75
2021/03/25 04:09:38;;;;;;;88.90;76.10;;;;;;;5.76;68.95;100900.57;121413;1155;24753;-76
2021/03/25 04:12:29;;;;;;;103.10;81.83;;;;;;;5.76;69.03;100897.95;121783;1155;22561;-75
2021/03/25 04:15:10;;;;;;;100.83;74.93;;;;;;;5.74;68.94;100899.88;121635;1155;22664;-75
2021/03/25 04:17:58;;;;;;;90.60;74.63;;;;;;;5.73;68.77;100899.05;121583;1155;22852;-75
2021/03/25 04:21:37;;;;;;;100.95;82.63;;;;;;;5.75;69.27;100907.61;121094;1160;22851;-75
2021/03/25 04:24:15;;;;;;;91.00;75.63;;;;;;;5.80;69.11;100905.47;120984;1162;24940;-75
2021/03/25 04:26:59;;;;;;;166.95;121.18;;;;;;;5.81;68.85;100901.05;121109;1163;22556;-75
2021/03/25 04:29:52;;;;;;;118.63;88.73;;;;;;;5.85;69.04;100910.33;121000;1161;24802;-75
2021/03/25 04:32:23;;;;;;;101.10;81.33;;;;;;;5.91;69.17;100909.84;120938;1164;22585;-75
2021/03/25 04:34:54;;;;;;;92.57;76.67;;;;;;;5.92;69.01;100905.42;120839;1164;22590;-75
2021/03/25 04:37:25;;;;;;;94.00;77.13;;;;;;;5.93;69.30;100905.34;120923;1164;22909;-75
2021/03/25 04:40:21;;;;;;;391.30;169.07;;;;;;;5.92;69.02;100903.63;120707;1167;22604;-75
2021/03/25 04:43:00;;;;;;;108.50;78.05;;;;;;;5.87;68.46;100905.80;120685;1166;22583;-75
2021/03/25 04:45:43;;;;;;;106.57;80.47;;;;;;;5.80;68.66;100902.84;120813;1164;22589;-75
2021/03/25 04:48:25;;;;;;;94.43;76.63;;;;;;;5.75;68.82;100904.98;120914;1164;22800;-76
2021/03/25 04:51:12;;;;;;;95.77;74.40;;;;;;;5.69;68.68;100908.09;120963;1164;22609;-75
2021/03/25 04:53:45;;;;;;;92.13;75.33;;;;;;;5.66;68.89;100911.81;120900;1162;22611;-75
2021/03/25 04:56:21;;;;;;;618.70;295.95;;;;;;;5.67;68.98;100910.02;120939;1161;22609;-74
2021/03/25 04:59:01;;;;;;;204.00;115.43;;;;;;;5.68;69.01;100908.23;121206;1160;24540;-74
2021/03/25 05:01:35;;;;;;;178.88;107.70;;;;;;;5.64;68.91;100907.64;121411;1155;22617;-74
2021/03/25 05:04:07;;;;;;;130.08;90.08;;;;;;;5.62;69.38;100899.89;121623;1155;25292;-75
2021/03/25 05:06:50;;;;;;;214.13;110.78;;;;;;;5.67;69.49;100902.16;121693;1157;22555;-74
2021/03/25 05:09:24;;;;;;;183.00;104.73;;;;;;;5.71;69.40;100908.81;121232;1160;22576;-74
2021/03/25 05:11:54;;;;;;;;;;;;;;;5.61;68.80;100903.47;121233;1164;24825;-74
2021/03/25 05:14:28;;;;;;;103.50;81.33;;;;;;;5.48;69.02;100905.40;121065;1158;22136;-74
2021/03/25 05:17:35;;;;;;;105.47;85.40;;;;;;;5.42;69.29;100905.88;121177;1160;22574;-75
2021/03/25 05:20:14;;;;;;;208.00;107.93;;;;;;;5.42;69.73;100918.98;121161;1161;24728;-74
2021/03/25 05:23:05;;;;;;;183.05;106.48;;;;;;;5.50;69.92;100923.61;121010;1161;22651;-74
2021/03/25 05:25:35;;;;;;;121.57;94.90;;;;;;;5.48;69.44;100920.30;120896;1164;22608;-74
2021/03/25 05:28:22;;;;;;;122.68;98.70;;;;;;;5.39;69.44;100920.05;121096;1161;22591;-74
2021/03/25 05:30:54;;;;;;;122.73;101.63;;;;;;;5.36;69.78;100919.45;121143;1158;22776;-75
2021/03/25 05:33:31;;;;;;;120.13;97.30;;;;;;;5.34;69.74;100916.97;121193;1158;22661;-74
2021/03/25 05:36:11;;;;;;;124.53;103.13;;;;;;;5.30;70.11;100912.93;121512;1158;22854;-74
2021/03/25 05:38:45;;;;;;;132.55;103.33;;;;;;;5.33;70.32;100912.69;121447;1155;22555;-75
2021/03/25 05:41:47;;;;;;;133.88;106.13;;;;;;;5.45;70.82;100923.98;121644;1155;24849;-74
2021/03/25 05:44:52;;;;;;;158.05;110.83;;;;;;;5.61;70.69;100932.30;121703;1155;22579;-74
2021/03/25 05:47:55;;;;;;;114.18;86.98;;;;;;;5.61;70.10;100927.06;121997;1155;24713;-74
2021/03/25 05:50:42;;;;;;;100.00;83.70;;;;;;;5.56;70.13;100926.58;121888;1152;23011;-75
2021/03/25 05:53:35;;;;;;;98.40;81.53;;;;;;;5.57;70.22;100924.81;121674;1155;22550;-73
2021/03/25 05:56:24;;;;;;;110.15;83.48;;;;;;;5.61;70.51;100926.23;121682;1156;22550;-74
2021/03/25 05:59:01;;;;;;;109.35;81.45;;;;;;;5.71;70.18;100923.72;122040;1155;24455;-74
2021/03/25 06:02:01;;;;;;;104.10;79.70;;;;;;;5.81;70.55;100927.27;121659;1155;22557;-74
2021/03/25 06:04:32;;;;;;;110.78;84.25;;;;;;;5.88;70.22;100931.89;122048;1154;22538;-75
2021/03/25 06:07:27;;;;;;;117.95;87.08;;;;;;;6.03;70.58;100936.88;121498;1159;24467;-75
2021/03/25 06:10:39;;;;;;;100.05;79.80;;;;;;;6.23;70.53;100937.88;121096;1161;22576;-75
2021/03/25 06:13:39;;;;;;;115.28;82.93;;;;;;;6.41;70.12;100933.77;121427;1158;23193;-74
2021/03/25 06:16:30;;;;;;;100.50;80.10;;;;;;;6.55;69.84;100945.74;121461;1158;24725;-75
2021/03/25 06:19:41;;;;;;;95.40;77.58;;;;;;;6.68;69.34;100948.19;121523;1158;24461;-75
2021/03/25 06:22:34;;;;;;;98.13;85.35;;;;;;;6.88;69.42;100951.77;121470;1158;22705;-75
2021/03/25 06:26:03;;;;;;;97.15;78.40;;;;;;;7.00;68.68;100943.69;121347;1155;22556;-75
2021/03/25 06:28:32;;;;;;;92.40;76.70;;;;;;;7.11;68.33;100947.20;121785;1155;22548;-75
2021/03/25 06:31:34;;;;;;;99.95;81.00;;;;;;;7.24;68.21;100946.02;121209;1158;22710;-75
2021/03/25 06:34:50;;;;;;;103.53;78.10;;;;;;;7.44;68.26;100948.73;121105;1161;22562;-73
2021/03/25 06:37:49;;;;;;;104.98;80.20;;;;;;;7.68;67.50;100945.75;121111;1161;24468;-74
2021/03/25 06:40:24;;;;;;;104.17;77.70;;;;;;;7.77;66.68;100940.52;120838;1161;23483;-75
2021/03/25 06:43:27;;;;;;;99.50;78.35;;;;;;;7.96;66.85;100944.14;120866;1161;22591;-71
2021/03/25 06:46:04;;;;;;;99.58;76.93;;;;;;;8.34;67.37;100953.88;120886;1164;22674;-72
2021/03/25 06:48:46;;;;;;;133.70;94.70;;;;;;;8.69;66.06;100949.86;120886;1160;22561;-71
2021/03/25 06:51:46;;;;;;;167.53;114.65;;;;;;;8.99;65.34;100955.91;121055;1158;22567;-75
2021/03/25 06:54:45;;;;;;;120.20;88.48;;;;;;;9.33;64.08;100951.79;121192;1158;22610;-74
2021/03/25 06:58:42;;;;;;;213.03;117.20;;;;;;;9.51;63.26;100961.56;121330;1161;22667;-81
2021/03/25 07:02:20;;;;;;;112.57;78.50;;;;;;;9.65;62.41;100961.89;120806;1164;22594;-76
2021/03/25 07:05:19;;;;;;;92.97;77.17;;;;;;;9.83;62.18;100955.82;120833;1164;22613;-74
2021/03/25 07:08:35;;;;;;;120.13;84.00;;;;;;;10.24;62.14;100965.01;120873;1164;22586;-74
2021/03/25 07:11:31;;;;;;;103.90;75.90;;;;;;;10.71;61.56;100969.24;120604;1167;22610;-74
2021/03/25 07:14:49;;;;;;;;;;;;;;;;;;;;;
2021/03/25 07:17:44;;;;;;;113.27;81.27;;;;;;;11.37;58.80;100968.67;120691;1164;22570;-75
2021/03/25 07:20:42;;;;;;;103.80;73.33;;;;;;;11.58;57.77;100970.08;120890;1162;22589;-73
2021/03/25 07:23:41;;;;;;;79.77;67.10;;;;;;;11.87;58.23;100959.97;120854;1162;22592;-74
2021/03/25 07:26:57;;;;;;;82.20;67.00;;;;;;;12.35;57.13;100968.16;121002;1162;24464;-74
2021/03/25 07:31:12;;;;;;;;;;;;;;;;;;;;;
2021/03/25 07:36:04;;;;;;;;;;;;;;;;;;;;;
2021/03/25 07:39:48;;;;;;;77.20;66.90;;;;;;;13.34;53.90;100967.10;120902;1163;22586;-74
2021/03/25 07:42:55;;;;;;;87.05;73.30;;;;;;;13.68;53.71;100969.45;120802;1164;22584;-75
2021/03/25 07:46:36;;;;;;;80.00;71.38;;;;;;;14.02;52.52;100966.44;120832;1163;22592;-76
2021/03/25 07:50:36;;;;;;;75.73;67.53;;;;;;;14.40;52.36;100966.54;121099;1162;25218;-74
2021/03/25 07:54:26;;;;;;;;;;;;;;;;;;;;;
2021/03/25 07:58:35;;;;;;;;;;;;;;;;;;;;;
2021/03/25 08:02:06;;;;;;;;;;;;;;;;;;;;;
2021/03/25 08:05:33;;;;;;;77.90;65.97;;;;;;;14.88;49.11;100953.84;120399;1168;22610;-73
2021/03/25 08:08:38;;;;;;;70.35;62.75;;;;;;;14.90;48.64;100956.34;120499;1165;22927;-72
2021/03/25 08:11:28;;;;;;;69.55;62.10;;;;;;;15.27;47.30;100952.79;120640;1165;23169;-79
2021/03/25 08:14:50;;;;;;;93.35;83.25;;;;;;;15.42;46.75;100952.77;120457;1168;22607;-77
2021/03/25 08:18:00;;;;;;;78.10;69.60;;;;;;;15.66;46.67;100963.17;120645;1166;22614;-78
2021/03/25 08:21:15;;;;;;;77.60;69.30;;;;;;;15.97;45.98;100967.41;120591;1167;22707;-75
2021/03/25 08:24:54;;;;;;;69.13;61.97;;;;;;;15.87;44.70;100959.72;120700;1164;24824;-80
2021/03/25 08:28:08;;;;;;;67.40;57.33;;;;;;;15.99;45.61;100955.56;120712;1168;22611;-78
2021/03/25 08:31:49;;;;;;;;;;;;;;;;;;;;;
2021/03/25 08:34:40;;;;;;;61.70;55.20;;;;;;;16.69;43.26;100955.78;121616;1156;23100;-76
2021/03/25 08:37:41;;;;;;;;;;;;;;;16.50;41.82;100951.95;121649;1158;22557;-76
2021/03/25 08:40:49;;;;;;;61.63;54.90;;;;;;;16.84;43.76;100958.41;121522;1158;21342;-81
2021/03/25 08:43:43;;;;;;;61.15;54.05;;;;;;;17.33;43.58;100949.48;121501;1158;22553;-77
2021/03/25 08:47:10;;;;;;;56.17;50.37;;;;;;;17.70;42.04;100956.22;121551;1158;22633;-78
2021/03/25 08:50:39;;;;;;;58.53;52.57;;;;;;;17.78;40.76;100949.90;121702;1158;22596;-79
2021/03/25 08:53:58;;;;;;;117.05;61.98;;;;;;;17.94;40.82;100951.39;121459;1157;22634;-78
2021/03/25 08:56:53;;;;;;;76.00;63.13;;;;;;;18.13;40.46;100944.42;121595;1158;22545;-80
2021/03/25 09:00:15;;;;;;;74.50;56.30;;;;;;;18.19;39.70;100948.97;122204;1152;22536;-82
2021/03/25 09:03:09;;;;;;;;;;;;;;;18.14;38.83;100938.08;122125;1156;22634;-78
2021/03/25 09:06:20;;;;;;;55.77;50.13;;;;;;;18.19;40.26;100940.95;122202;1152;21392;-76
2021/03/25 09:09:34;;;;;;;60.18;51.18;;;;;;;18.03;38.41;100945.66;122271;1155;22541;-79
2021/03/25 09:12:30;;;;;;;54.40;48.85;;;;;;;18.07;39.62;100948.75;121715;1155;24713;-79
2021/03/25 09:15:48;;;;;;;64.88;54.33;;;;;;;18.45;39.41;100940.16;121939;1155;22450;-81
2021/03/25 09:18:48;;;;;;;72.57;56.03;;;;;;;18.73;38.57;100948.02;121642;1155;22585;-78
2021/03/25 09:21:50;;;;;;;60.43;54.78;;;;;;;18.87;38.26;100957.68;121755;1155;22543;-79
2021/03/25 09:24:23;;;;;;;61.05;50.33;;;;;;;19.12;37.86;100955.16;121444;1157;22562;-78
2021/03/25 09:27:01;;;;;;;61.40;54.88;;;;;;;19.18;37.47;100957.00;121460;1158;24756;-80
2021/03/25 09:30:02;;;;;;;56.60;50.95;;;;;;;19.31;37.40;100950.79;121771;1155;22558;-78
2021/03/25 09:32:37;;;;;;;;;;;;;;;19.37;36.57;100949.95;121733;1159;22570;-77
2021/03/25 09:35:45;;;;;;;51.33;46.10;;;;;;;19.42;37.73;100943.95;122158;1155;22130;-76
2021/03/25 09:38:32;;;;;;;56.25;49.85;;;;;;;19.54;37.25;100952.16;121996;1155;22552;-77
2021/03/25 09:41:02;;;;;;;57.13;51.35;;;;;;;19.71;37.15;100943.45;121516;1158;22578;-78
2021/03/25 09:43:40;;;;;;;52.80;48.03;;;;;;;19.88;36.28;100943.77;121505;1155;22554;-82
2021/03/25 09:46:43;;;;;;;56.85;51.33;;;;;;;20.26;36.32;100944.77;121593;1155;23951;-79
2021/03/25 09:49:43;;;;;;;59.23;53.17;;;;;;;20.75;35.94;100943.19;122110;1155;24792;-78
2021/03/25 09:52:36;;;;;;;65.93;49.93;;;;;;;21.11;35.46;100937.05;122017;1155;24712;-78
2021/03/25 09:55:07;;;;;;;52.38;46.75;;;;;;;21.23;33.92;100946.02;121369;1157;23216;-78
2021/03/25 09:57:54;;;;;;;81.23;53.33;;;;;;;21.54;34.71;100938.86;121941;1158;22572;-77
2021/03/25 10:00:23;;;;;;;69.53;51.88;;;;;;;21.81;33.77;100944.72;121859;1157;22556;-77
2021/03/25 10:02:55;;;;;;;52.78;47.80;;;;;;;22.09;33.25;100944.09;121773;1155;22550;-77
2021/03/25 10:05:57;;;;;;;55.93;50.03;;;;;;;22.47;32.35;100946.45;121991;1155;22550;-77
2021/03/25 10:08:22;;;;;;;50.80;45.75;;;;;;;22.69;31.89;100943.18;122348;1155;22848;-77
2021/03/25 10:11:01;;;;;;;51.10;46.40;;;;;;;22.88;31.58;100947.41;122333;1155;23320;-77
2021/03/25 10:13:46;;;;;;;52.10;46.97;;;;;;;22.92;30.98;100936.98;121767;1155;23290;-79
2021/03/25 10:16:40;;;;;;;51.10;46.48;;;;;;;23.04;31.01;100945.09;121444;1156;24712;-76
2021/03/25 10:19:11;;;;;;;51.35;46.45;;;;;;;23.11;30.81;100943.91;121249;1158;22602;-77
2021/03/25 10:22:01;;;;;;;50.65;45.95;;;;;;;23.32;30.38;100939.76;121376;1161;22602;-78
2021/03/25 10:24:44;;;;;;;57.30;48.40;;;;;;;23.42;30.29;100937.27;121102;1162;22582;-77
2021/03/25 10:27:42;;;;;;;56.50;49.73;;;;;;;23.71;30.28;100937.34;121016;1164;23007;-77
2021/03/25 10:30:27;;;;;;;62.07;50.20;;;;;;;23.67;29.23;100934.28;120993;1164;22571;-77
2021/03/25 10:32:57;;;;;;;55.70;50.37;;;;;;;23.73;29.45;100929.84;121247;1164;22572;-77
2021/03/25 10:35:34;;;;;;;70.60;57.00;;;;;;;24.01;29.36;100923.59;120942;1164;25185;-77
2021/03/25 10:38:11;;;;;;;56.15;50.45;;;;;;;24.12;28.82;100925.39;121097;1164;22641;-77
2021/03/25 10:40:44;;;;;;;53.68;48.30;;;;;;;24.18;28.37;100923.61;121052;1161;26165;-76
2021/03/25 10:43:26;;;;;;;54.73;47.60;;;;;;;24.34;29.05;100924.69;121554;1158;22629;-77
2021/03/25 10:46:05;;;;;;;57.25;50.78;;;;;;;24.50;28.23;100920.39;121261;1161;22553;-77
2021/03/25 10:48:43;;;;;;;54.15;49.25;;;;;;;24.51;27.90;100922.02;121467;1158;23026;-77
2021/03/25 10:51:12;;;;;;;56.43;50.50;;;;;;;24.51;27.63;100919.32;121682;1158;22660;-77
2021/03/25 10:53:51;;;;;;;53.20;48.50;;;;;;;24.36;28.02;100923.39;121841;1158;22624;-77
2021/03/25 10:56:37;;;;;;;57.50;51.65;;;;;;;24.25;27.74;100920.75;121735;1155;22565;-78
2021/03/25 10:59:11;;;;;;;52.97;47.50;;;;;;;23.87;27.77;100917.69;121765;1158;22572;-81
2021/03/25 11:01:53;;;;;;;55.68;50.43;;;;;;;23.22;28.29;100909.91;121631;1158;22572;-79
2021/03/25 11:04:36;;;;;;;58.80;52.43;;;;;;;22.61;28.96;100911.23;121681;1157;22576;-81
2021/03/25 11:07:23;;;;;;;55.97;50.57;;;;;;;21.95;28.99;100905.81;121665;1158;22575;-75
2021/03/25 11:09:58;;;;;;;62.00;55.60;;;;;;;21.39;30.07;100901.61;121572;1158;22918;-81
2021/03/25 11:12:33;;;;;;;64.18;57.43;;;;;;;20.90;29.75;100898.02;121604;1154;24437;-79
2021/03/25 11:15:15;;;;;;;60.93;55.18;;;;;;;20.37;30.85;100898.48;121745;1155;23431;-83
2021/03/25 11:17:44;;;;;;;78.75;60.78;;;;;;;19.85;31.28;100898.63;121807;1155;24703;-79
2021/03/25 11:20:22;;;;;;;59.80;53.63;;;;;;;19.46;32.15;100903.14;121959;1155;25185;-83
2021/03/25 11:22:51;;;;;;;62.08;55.68;;;;;;;19.11;32.58;100899.14;122046;1155;22728;-84
2021/03/25 11:25:26;;;;;;;60.80;54.95;;;;;;;18.73;32.90;100889.96;122148;1152;24708;-81
2021/03/25 11:28:06;;;;;;;61.73;55.67;;;;;;;18.30;33.59;100893.04;122243;1152;22633;-78
2021/03/25 11:30:41;;;;;;;62.00;55.45;;;;;;;17.99;33.90;100880.24;121646;1155;22553;-76
2021/03/25 11:33:38;;;;;;;64.58;57.98;;;;;;;17.69;34.65;100882.41;122034;1155;22651;-76
2021/03/25 11:36:09;;;;;;;121.28;65.18;;;;;;;17.39;35.08;100877.41;121566;1156;22659;-74
2021/03/25 11:38:44;;;;;;;60.00;53.73;;;;;;;17.25;35.36;100878.36;121237;1160;24431;-74
2021/03/25 11:41:17;;;;;;;65.93;59.53;;;;;;;17.10;35.83;100878.50;120912;1161;22635;-75
2021/03/25 11:43:49;;;;;;;;;;;;;;;16.86;35.80;100869.14;120909;1165;24440;-76
2021/03/25 11:46:40;;;;;;;62.83;56.23;;;;;;;16.69;35.88;100867.74;120861;1164;21365;-73
2021/03/25 11:49:21;;;;;;;66.20;59.17;;;;;;;16.57;36.52;100863.98;120744;1165;24500;-75
2021/03/25 11:51:51;;;;;;;64.10;57.40;;;;;;;16.40;36.68;100866.94;120752;1164;23230;-72
2021/03/25 11:54:47;;;;;;;67.90;61.10;;;;;;;16.29;36.98;100862.12;120881;1164;22575;-72
2021/03/25 11:57:22;;;;;;;75.18;67.30;;;;;;;16.13;36.91;100857.09;121032;1161;24662;-73
2021/03/25 12:00:14;;;;;;;64.07;57.60;;;;;;;16.05;37.74;100857.20;121076;1161;22655;-74
2021/03/25 12:02:47;;;;;;;62.80;56.43;;;;;;;16.01;38.06;100856.77;121128;1158;22636;-73
2021/03/25 12:05:45;;;;;;;77.95;61.43;;;;;;;15.94;37.81;100851.38;121183;1160;24734;-73
2021/03/25 12:08:13;;;;;;;74.05;57.48;;;;;;;15.84;38.25;100853.53;121066;1161;23577;-72
2021/03/25 12:10:43;;;;;;;67.85;60.48;;;;;;;15.84;38.54;100853.53;121113;1159;22610;-76
2021/03/25 12:13:12;;;;;;;64.43;58.08;;;;;;;15.83;38.73;100853.70;121230;1161;22593;-73
2021/03/25 12:15:42;;;;;;;78.25;64.70;;;;;;;15.79;38.87;100853.26;121196;1158;25221;-73
2021/03/25 12:18:27;;;;;;;67.85;60.70;;;;;;;15.76;38.97;100849.16;121431;1158;22548;-73
2021/03/25 12:21:03;;;;;;;68.60;61.35;;;;;;;15.73;39.04;100846.05;121569;1158;24622;-75
2021/03/25 12:23:35;;;;;;;66.55;59.70;;;;;;;15.62;39.41;100841.17;121635;1155;25330;-74
2021/03/25 12:26:10;;;;;;;63.48;56.88;;;;;;;15.60;39.57;100835.23;121550;1155;22551;-73
2021/03/25 12:28:39;;;;;;;64.30;57.65;;;;;;;15.62;39.85;100839.33;121615;1158;22590;-71
2021/03/25 12:31:08;;;;;;;64.93;58.23;;;;;;;15.63;39.77;100834.86;121564;1155;22554;-72
2021/03/25 12:33:38;;;;;;;67.48;60.58;;;;;;;15.64;40.24;100834.65;121576;1158;24699;-73
2021/03/25 12:36:09;;;;;;;65.78;58.75;;;;;;;15.74;40.34;100829.05;121615;1155;22612;-73
2021/03/25 12:38:39;;;;;;;63.50;57.20;;;;;;;15.82;40.06;100828.09;121713;1155;22552;-74
2021/03/25 12:41:44;;;;;;;68.78;61.85;;;;;;;15.77;40.09;100831.33;121620;1155;23596;-73
2021/03/25 12:44:15;;;;;;;63.23;56.70;;;;;;;15.73;40.62;100835.40;121656;1152;22886;-73
2021/03/25 12:47:01;;;;;;;67.65;60.48;;;;;;;15.77;40.84;100834.00;122180;1149;23317;-73
2021/03/25 12:49:30;;;;;;;66.70;59.80;;;;;;;15.80;40.68;100828.30;122022;1155;24458;-73
2021/03/25 12:51:59;;;;;;;63.83;57.58;;;;;;;15.81;40.49;100829.93;121637;1155;22557;-72
2021/03/25 12:54:27;;;;;;;62.60;56.33;;;;;;;15.81;40.75;100815.79;122004;1155;22547;-71